sensor_id;sensor_type;location;lat;lon;timestamp;temperature;humidity
7254;DHT22;4060;49.186;9.226;2022-07-06T00:01:42;30.30;30.40
7254;DHT22;4060;49.186;9.226;2022-07-06T00:04:12;30.20;30.40
7254;DHT22;4060;49.186;9.226;2022-07-06T00:06:41;30.20;30.50
7254;DHT22;4060;49.186;9.226;2022-07-06T00:09:11;30.20;30.50
7254;DHT22;4060;49.186;9.226;2022-07-06T00:11:40;30.10;30.50
7254;DHT22;4060;49.186;9.226;2022-07-06T00:14:12;30.10;30.60
7254;DHT22;4060;49.186;9.226;2022-07-06T00:16:42;30.10;30.60
7254;DHT22;4060;49.186;9.226;2022-07-06T00:19:12;30.00;30.60
7254;DHT22;4060;49.186;9.226;2022-07-06T00:21:41;30.00;30.60
7254;DHT22;4060;49.186;9.226;2022-07-06T00:24:11;30.00;30.70
7254;DHT22;4060;49.186;9.226;2022-07-06T00:26:41;29.90;30.60
7254;DHT22;4060;49.186;9.226;2022-07-06T00:29:12;29.90;30.70
7254;DHT22;4060;49.186;9.226;2022-07-06T00:31:42;29.90;31.20
7254;DHT22;4060;49.186;9.226;2022-07-06T00:34:11;29.90;30.80
7254;DHT22;4060;49.186;9.226;2022-07-06T00:36:41;29.80;30.80
7254;DHT22;4060;49.186;9.226;2022-07-06T00:39:10;29.80;30.90
7254;DHT22;4060;49.186;9.226;2022-07-06T00:41:40;29.80;30.90
7254;DHT22;4060;49.186;9.226;2022-07-06T00:44:10;29.70;30.90
7254;DHT22;4060;49.186;9.226;2022-07-06T00:46:41;29.70;30.90
7254;DHT22;4060;49.186;9.226;2022-07-06T00:49:10;29.70;31.00
7254;DHT22;4060;49.186;9.226;2022-07-06T00:52:02;29.60;31.00
7254;DHT22;4060;49.186;9.226;2022-07-06T00:54:33;29.60;31.10
7254;DHT22;4060;49.186;9.226;2022-07-06T00:57:03;29.60;31.20
7254;DHT22;4060;49.186;9.226;2022-07-06T00:59:33;29.50;31.20
7254;DHT22;4060;49.186;9.226;2022-07-06T01:02:06;29.50;31.30
7254;DHT22;4060;49.186;9.226;2022-07-06T01:04:35;29.50;31.40
7254;DHT22;4060;49.186;9.226;2022-07-06T01:07:04;29.40;31.40
7254;DHT22;4060;49.186;9.226;2022-07-06T01:09:34;29.40;31.50
7254;DHT22;4060;49.186;9.226;2022-07-06T01:12:04;29.40;31.50
7254;DHT22;4060;49.186;9.226;2022-07-06T01:14:34;29.40;31.60
7254;DHT22;4060;49.186;9.226;2022-07-06T01:17:10;29.30;31.60
7254;DHT22;4060;49.186;9.226;2022-07-06T01:19:40;29.30;31.70
7254;DHT22;4060;49.186;9.226;2022-07-06T01:22:11;29.30;31.80
7254;DHT22;4060;49.186;9.226;2022-07-06T01:24:41;29.20;31.80
7254;DHT22;4060;49.186;9.226;2022-07-06T01:27:12;29.20;31.80
7254;DHT22;4060;49.186;9.226;2022-07-06T01:29:41;29.20;31.90
7254;DHT22;4060;49.186;9.226;2022-07-06T01:32:12;29.20;32.00
7254;DHT22;4060;49.186;9.226;2022-07-06T01:34:42;29.10;32.00
7254;DHT22;4060;49.186;9.226;2022-07-06T01:37:13;29.10;32.10
7254;DHT22;4060;49.186;9.226;2022-07-06T01:39:42;29.10;32.10
7254;DHT22;4060;49.186;9.226;2022-07-06T01:42:12;29.10;32.20
7254;DHT22;4060;49.186;9.226;2022-07-06T01:44:42;29.00;32.10
7254;DHT22;4060;49.186;9.226;2022-07-06T01:47:12;29.00;32.30
7254;DHT22;4060;49.186;9.226;2022-07-06T01:49:41;29.00;32.30
7254;DHT22;4060;49.186;9.226;2022-07-06T01:52:12;28.90;32.30
7254;DHT22;4060;49.186;9.226;2022-07-06T01:54:42;28.90;32.40
7254;DHT22;4060;49.186;9.226;2022-07-06T01:57:11;28.90;32.40
7254;DHT22;4060;49.186;9.226;2022-07-06T01:59:41;28.80;32.40
7254;DHT22;4060;49.186;9.226;2022-07-06T02:02:10;28.80;32.50
7254;DHT22;4060;49.186;9.226;2022-07-06T02:04:40;28.80;32.50
7254;DHT22;4060;49.186;9.226;2022-07-06T02:07:10;28.80;32.60
7254;DHT22;4060;49.186;9.226;2022-07-06T02:09:41;28.70;32.60
7254;DHT22;4060;49.186;9.226;2022-07-06T02:12:11;28.70;32.70
7254;DHT22;4060;49.186;9.226;2022-07-06T02:14:40;28.70;32.70
7254;DHT22;4060;49.186;9.226;2022-07-06T02:17:10;28.70;32.80
7254;DHT22;4060;49.186;9.226;2022-07-06T02:19:39;28.60;32.80
7254;DHT22;4060;49.186;9.226;2022-07-06T02:22:08;28.60;32.80
7254;DHT22;4060;49.186;9.226;2022-07-06T02:24:40;28.60;32.80
7254;DHT22;4060;49.186;9.226;2022-07-06T02:27:09;28.50;32.80
7254;DHT22;4060;49.186;9.226;2022-07-06T02:29:39;28.50;32.80
7254;DHT22;4060;49.186;9.226;2022-07-06T02:32:08;28.50;32.90
7254;DHT22;4060;49.186;9.226;2022-07-06T02:34:38;28.50;33.00
7254;DHT22;4060;49.186;9.226;2022-07-06T02:37:08;28.40;33.00
7254;DHT22;4060;49.186;9.226;2022-07-06T02:39:40;28.40;33.00
7254;DHT22;4060;49.186;9.226;2022-07-06T02:42:09;28.40;33.10
7254;DHT22;4060;49.186;9.226;2022-07-06T02:44:39;28.30;33.10
7254;DHT22;4060;49.186;9.226;2022-07-06T02:47:08;28.30;33.10
7254;DHT22;4060;49.186;9.226;2022-07-06T02:49:38;28.30;33.70
7254;DHT22;4060;49.186;9.226;2022-07-06T02:52:07;28.30;33.20
7254;DHT22;4060;49.186;9.226;2022-07-06T02:54:37;28.20;33.20
7254;DHT22;4060;49.186;9.226;2022-07-06T02:57:10;28.20;33.20
7254;DHT22;4060;49.186;9.226;2022-07-06T02:59:39;28.20;33.30
7254;DHT22;4060;49.186;9.226;2022-07-06T03:02:09;28.20;33.40
7254;DHT22;4060;49.186;9.226;2022-07-06T03:04:38;28.10;33.40
7254;DHT22;4060;49.186;9.226;2022-07-06T03:07:08;28.10;33.40
7254;DHT22;4060;49.186;9.226;2022-07-06T03:09:37;28.10;33.50
7254;DHT22;4060;49.186;9.226;2022-07-06T03:12:09;28.00;33.50
7254;DHT22;4060;49.186;9.226;2022-07-06T03:14:39;28.00;33.60
7254;DHT22;4060;49.186;9.226;2022-07-06T03:17:08;28.00;33.60
7254;DHT22;4060;49.186;9.226;2022-07-06T03:19:38;28.00;33.60
7254;DHT22;4060;49.186;9.226;2022-07-06T03:22:07;27.90;33.70
7254;DHT22;4060;49.186;9.226;2022-07-06T03:24:37;27.90;33.70
7254;DHT22;4060;49.186;9.226;2022-07-06T03:27:08;27.90;33.80
7254;DHT22;4060;49.186;9.226;2022-07-06T03:29:37;27.80;33.80
7254;DHT22;4060;49.186;9.226;2022-07-06T03:32:07;27.80;33.80
7254;DHT22;4060;49.186;9.226;2022-07-06T03:34:37;27.80;33.90
7254;DHT22;4060;49.186;9.226;2022-07-06T03:37:07;27.70;33.90
7254;DHT22;4060;49.186;9.226;2022-07-06T03:39:36;27.70;34.00
7254;DHT22;4060;49.186;9.226;2022-07-06T03:42:08;27.70;34.00
7254;DHT22;4060;49.186;9.226;2022-07-06T03:44:37;27.70;34.00
7254;DHT22;4060;49.186;9.226;2022-07-06T03:47:07;27.60;34.00
7254;DHT22;4060;49.186;9.226;2022-07-06T03:49:36;27.60;34.10
7254;DHT22;4060;49.186;9.226;2022-07-06T03:52:06;27.60;34.20
7254;DHT22;4060;49.186;9.226;2022-07-06T03:54:35;27.60;34.30
7254;DHT22;4060;49.186;9.226;2022-07-06T03:57:05;27.50;34.20
7254;DHT22;4060;49.186;9.226;2022-07-06T03:59:37;27.50;34.20
7254;DHT22;4060;49.186;9.226;2022-07-06T04:02:07;27.50;34.30
7254;DHT22;4060;49.186;9.226;2022-07-06T04:04:36;27.50;34.30
7254;DHT22;4060;49.186;9.226;2022-07-06T04:07:05;27.40;34.40
7254;DHT22;4060;49.186;9.226;2022-07-06T04:09:35;27.40;34.40
7254;DHT22;4060;49.186;9.226;2022-07-06T04:12:05;27.40;34.50
7254;DHT22;4060;49.186;9.226;2022-07-06T04:14:36;27.40;34.50
7254;DHT22;4060;49.186;9.226;2022-07-06T04:17:06;27.40;34.60
7254;DHT22;4060;49.186;9.226;2022-07-06T04:19:48;27.30;34.60
7254;DHT22;4060;49.186;9.226;2022-07-06T04:22:17;27.30;34.60
7254;DHT22;4060;49.186;9.226;2022-07-06T04:24:47;27.30;34.70
7254;DHT22;4060;49.186;9.226;2022-07-06T04:27:16;27.30;34.70
7254;DHT22;4060;49.186;9.226;2022-07-06T04:29:48;27.30;34.80
7254;DHT22;4060;49.186;9.226;2022-07-06T04:32:18;27.20;34.80
7254;DHT22;4060;49.186;9.226;2022-07-06T04:34:47;27.20;34.90
7254;DHT22;4060;49.186;9.226;2022-07-06T04:37:17;27.20;34.90
7254;DHT22;4060;49.186;9.226;2022-07-06T04:39:47;27.10;35.00
7254;DHT22;4060;49.186;9.226;2022-07-06T04:42:16;27.20;35.10
7254;DHT22;4060;49.186;9.226;2022-07-06T04:44:47;27.10;35.10
7254;DHT22;4060;49.186;9.226;2022-07-06T04:47:18;27.10;35.10
7254;DHT22;4060;49.186;9.226;2022-07-06T04:49:48;27.10;35.20
7254;DHT22;4060;49.186;9.226;2022-07-06T04:52:18;27.00;35.20
7254;DHT22;4060;49.186;9.226;2022-07-06T04:54:48;27.00;35.30
7254;DHT22;4060;49.186;9.226;2022-07-06T04:57:18;27.00;35.30
7254;DHT22;4060;49.186;9.226;2022-07-06T04:59:49;27.00;35.40
7254;DHT22;4060;49.186;9.226;2022-07-06T05:02:18;27.00;35.50
7254;DHT22;4060;49.186;9.226;2022-07-06T05:04:48;26.90;35.40
7254;DHT22;4060;49.186;9.226;2022-07-06T05:07:18;26.90;35.40
7254;DHT22;4060;49.186;9.226;2022-07-06T05:09:48;26.90;35.50
7254;DHT22;4060;49.186;9.226;2022-07-06T05:12:17;26.90;35.60
7254;DHT22;4060;49.186;9.226;2022-07-06T05:14:48;26.90;35.60
7254;DHT22;4060;49.186;9.226;2022-07-06T05:17:18;26.90;35.70
7254;DHT22;4060;49.186;9.226;2022-07-06T05:19:48;26.80;35.60
7254;DHT22;4060;49.186;9.226;2022-07-06T05:22:17;26.80;35.70
7254;DHT22;4060;49.186;9.226;2022-07-06T05:24:47;26.80;35.70
7254;DHT22;4060;49.186;9.226;2022-07-06T05:27:16;26.80;35.80
7254;DHT22;4060;49.186;9.226;2022-07-06T05:29:48;26.80;35.80
7254;DHT22;4060;49.186;9.226;2022-07-06T05:32:17;26.80;35.90
7254;DHT22;4060;49.186;9.226;2022-07-06T05:34:47;26.80;36.00
7254;DHT22;4060;49.186;9.226;2022-07-06T05:37:16;26.70;36.10
7254;DHT22;4060;49.186;9.226;2022-07-06T05:39:46;26.70;36.30
7254;DHT22;4060;49.186;9.226;2022-07-06T05:42:17;26.80;36.50
7254;DHT22;4060;49.186;9.226;2022-07-06T05:44:49;26.80;36.50
7254;DHT22;4060;49.186;9.226;2022-07-06T05:47:18;26.80;36.60
7254;DHT22;4060;49.186;9.226;2022-07-06T05:50:05;26.70;36.50
7254;DHT22;4060;49.186;9.226;2022-07-06T05:52:55;26.80;36.50
7254;DHT22;4060;49.186;9.226;2022-07-06T05:55:25;26.80;36.50
7254;DHT22;4060;49.186;9.226;2022-07-06T05:57:55;26.70;36.50
7254;DHT22;4060;49.186;9.226;2022-07-06T06:00:27;26.70;36.50
7254;DHT22;4060;49.186;9.226;2022-07-06T06:02:57;26.70;36.50
7254;DHT22;4060;49.186;9.226;2022-07-06T06:05:27;26.70;36.50
7254;DHT22;4060;49.186;9.226;2022-07-06T06:07:57;26.70;36.50
7254;DHT22;4060;49.186;9.226;2022-07-06T06:10:26;26.70;36.60
7254;DHT22;4060;49.186;9.226;2022-07-06T06:12:55;26.70;36.70
7254;DHT22;4060;49.186;9.226;2022-07-06T06:15:27;26.70;36.70
7254;DHT22;4060;49.186;9.226;2022-07-06T06:17:56;26.70;36.80
7254;DHT22;4060;49.186;9.226;2022-07-06T06:20:26;26.70;36.90
7254;DHT22;4060;49.186;9.226;2022-07-06T06:22:56;26.70;37.00
7254;DHT22;4060;49.186;9.226;2022-07-06T06:25:31;26.60;37.10
7254;DHT22;4060;49.186;9.226;2022-07-06T06:28:03;26.70;37.20
7254;DHT22;4060;49.186;9.226;2022-07-06T06:30:34;26.70;37.10
7254;DHT22;4060;49.186;9.226;2022-07-06T06:33:11;26.70;37.20
7254;DHT22;4060;49.186;9.226;2022-07-06T06:35:44;26.70;37.20
7254;DHT22;4060;49.186;9.226;2022-07-06T06:38:14;26.70;37.20
7254;DHT22;4060;49.186;9.226;2022-07-06T06:40:44;26.70;37.20
7254;DHT22;4060;49.186;9.226;2022-07-06T06:43:14;26.70;37.20
7254;DHT22;4060;49.186;9.226;2022-07-06T06:45:45;26.70;37.30
7254;DHT22;4060;49.186;9.226;2022-07-06T06:48:15;26.70;37.30
7254;DHT22;4060;49.186;9.226;2022-07-06T06:50:46;26.70;37.30
7254;DHT22;4060;49.186;9.226;2022-07-06T06:53:16;26.80;37.30
7254;DHT22;4060;49.186;9.226;2022-07-06T06:55:45;26.80;37.30
7254;DHT22;4060;49.186;9.226;2022-07-06T06:58:15;26.80;37.20
7254;DHT22;4060;49.186;9.226;2022-07-06T07:00:46;26.80;37.20
7254;DHT22;4060;49.186;9.226;2022-07-06T07:03:15;26.90;37.30
7254;DHT22;4060;49.186;9.226;2022-07-06T07:05:45;26.90;37.20
7254;DHT22;4060;49.186;9.226;2022-07-06T07:08:16;26.90;37.20
7254;DHT22;4060;49.186;9.226;2022-07-06T07:10:46;26.90;37.20
7254;DHT22;4060;49.186;9.226;2022-07-06T07:13:16;26.90;37.20
7254;DHT22;4060;49.186;9.226;2022-07-06T07:15:47;27.00;37.20
7254;DHT22;4060;49.186;9.226;2022-07-06T07:18:17;27.00;37.10
7254;DHT22;4060;49.186;9.226;2022-07-06T07:20:46;27.00;37.10
7254;DHT22;4060;49.186;9.226;2022-07-06T07:23:16;27.00;37.00
7254;DHT22;4060;49.186;9.226;2022-07-06T07:25:45;27.00;37.00
7254;DHT22;4060;49.186;9.226;2022-07-06T07:28:15;27.00;37.00
7254;DHT22;4060;49.186;9.226;2022-07-06T07:30:47;27.00;37.00
7254;DHT22;4060;49.186;9.226;2022-07-06T07:33:17;27.00;37.00
7254;DHT22;4060;49.186;9.226;2022-07-06T07:35:46;27.00;37.00
7254;DHT22;4060;49.186;9.226;2022-07-06T07:38:16;27.00;37.00
7254;DHT22;4060;49.186;9.226;2022-07-06T07:40:45;27.00;37.00
7254;DHT22;4060;49.186;9.226;2022-07-06T07:43:15;27.00;37.00
7254;DHT22;4060;49.186;9.226;2022-07-06T07:45:46;27.10;37.00
7254;DHT22;4060;49.186;9.226;2022-07-06T07:48:16;27.10;37.00
7254;DHT22;4060;49.186;9.226;2022-07-06T07:50:46;27.10;37.00
7254;DHT22;4060;49.186;9.226;2022-07-06T07:53:15;27.10;37.00
7254;DHT22;4060;49.186;9.226;2022-07-06T07:55:45;27.10;37.00
7254;DHT22;4060;49.186;9.226;2022-07-06T07:58:15;27.10;37.10
7254;DHT22;4060;49.186;9.226;2022-07-06T08:00:46;27.10;37.10
7254;DHT22;4060;49.186;9.226;2022-07-06T08:03:15;27.10;37.10
7254;DHT22;4060;49.186;9.226;2022-07-06T08:05:45;27.20;37.10
7254;DHT22;4060;49.186;9.226;2022-07-06T08:08:15;27.10;37.10
7254;DHT22;4060;49.186;9.226;2022-07-06T08:10:45;27.10;37.10
7254;DHT22;4060;49.186;9.226;2022-07-06T08:13:14;27.10;37.10
7254;DHT22;4060;49.186;9.226;2022-07-06T08:15:44;27.10;37.10
7254;DHT22;4060;49.186;9.226;2022-07-06T08:18:15;27.20;37.20
7254;DHT22;4060;49.186;9.226;2022-07-06T08:20:44;27.20;37.20
7254;DHT22;4060;49.186;9.226;2022-07-06T08:23:14;27.10;37.20
7254;DHT22;4060;49.186;9.226;2022-07-06T08:25:43;27.20;37.20
7254;DHT22;4060;49.186;9.226;2022-07-06T08:28:13;27.20;37.30
7254;DHT22;4060;49.186;9.226;2022-07-06T08:30:42;27.20;37.20
7254;DHT22;4060;49.186;9.226;2022-07-06T08:33:13;27.20;37.20
7254;DHT22;4060;49.186;9.226;2022-07-06T08:35:43;27.20;37.20
7254;DHT22;4060;49.186;9.226;2022-07-06T08:38:12;27.30;37.20
7254;DHT22;4060;49.186;9.226;2022-07-06T08:40:45;27.30;37.20
7254;DHT22;4060;49.186;9.226;2022-07-06T08:43:17;27.30;37.20
7254;DHT22;4060;49.186;9.226;2022-07-06T08:45:46;27.30;37.20
7254;DHT22;4060;49.186;9.226;2022-07-06T08:48:23;27.30;37.20
7254;DHT22;4060;49.186;9.226;2022-07-06T08:50:54;27.30;37.10
7254;DHT22;4060;49.186;9.226;2022-07-06T08:53:25;27.30;37.00
7254;DHT22;4060;49.186;9.226;2022-07-06T08:55:55;27.30;37.00
7254;DHT22;4060;49.186;9.226;2022-07-06T08:58:25;27.30;37.00
7254;DHT22;4060;49.186;9.226;2022-07-06T09:00:55;27.30;37.00
7254;DHT22;4060;49.186;9.226;2022-07-06T09:03:27;27.30;37.00
7254;DHT22;4060;49.186;9.226;2022-07-06T09:06:00;27.40;37.10
7254;DHT22;4060;49.186;9.226;2022-07-06T09:08:32;27.40;37.10
7254;DHT22;4060;49.186;9.226;2022-07-06T09:11:04;27.40;37.00
7254;DHT22;4060;49.186;9.226;2022-07-06T09:13:34;27.40;37.00
7254;DHT22;4060;49.186;9.226;2022-07-06T09:16:11;27.40;37.00
7254;DHT22;4060;49.186;9.226;2022-07-06T09:18:44;27.40;37.00
7254;DHT22;4060;49.186;9.226;2022-07-06T09:21:24;27.40;37.00
7254;DHT22;4060;49.186;9.226;2022-07-06T09:23:57;27.40;37.00
7254;DHT22;4060;49.186;9.226;2022-07-06T09:26:28;27.40;37.00
7254;DHT22;4060;49.186;9.226;2022-07-06T09:28:58;27.40;37.00
7254;DHT22;4060;49.186;9.226;2022-07-06T09:31:28;27.40;37.00
7254;DHT22;4060;49.186;9.226;2022-07-06T09:34:00;27.40;37.00
7254;DHT22;4060;49.186;9.226;2022-07-06T09:36:43;27.40;37.00
7254;DHT22;4060;49.186;9.226;2022-07-06T09:39:22;27.40;37.00
7254;DHT22;4060;49.186;9.226;2022-07-06T09:41:53;27.50;37.20
7254;DHT22;4060;49.186;9.226;2022-07-06T09:44:24;27.50;37.10
7254;DHT22;4060;49.186;9.226;2022-07-06T09:46:56;27.50;37.10
7254;DHT22;4060;49.186;9.226;2022-07-06T09:49:28;27.50;37.10
7254;DHT22;4060;49.186;9.226;2022-07-06T09:51:58;27.50;37.00
7254;DHT22;4060;49.186;9.226;2022-07-06T09:54:29;27.50;37.10
7254;DHT22;4060;49.186;9.226;2022-07-06T09:56:58;27.50;37.10
7254;DHT22;4060;49.186;9.226;2022-07-06T09:59:29;27.50;37.10
7254;DHT22;4060;49.186;9.226;2022-07-06T10:02:01;27.50;37.10
7254;DHT22;4060;49.186;9.226;2022-07-06T10:04:33;27.50;37.00
7254;DHT22;4060;49.186;9.226;2022-07-06T10:07:03;27.50;37.00
7254;DHT22;4060;49.186;9.226;2022-07-06T10:09:34;27.50;37.00
7254;DHT22;4060;49.186;9.226;2022-07-06T10:12:03;27.50;37.00
7254;DHT22;4060;49.186;9.226;2022-07-06T10:14:34;27.50;37.00
7254;DHT22;4060;49.186;9.226;2022-07-06T10:17:04;27.50;37.00
7254;DHT22;4060;49.186;9.226;2022-07-06T10:19:35;27.50;37.00
7254;DHT22;4060;49.186;9.226;2022-07-06T10:22:05;27.50;36.90
7254;DHT22;4060;49.186;9.226;2022-07-06T10:24:36;27.60;37.00
7254;DHT22;4060;49.186;9.226;2022-07-06T10:27:11;27.60;37.00
7254;DHT22;4060;49.186;9.226;2022-07-06T10:29:41;27.60;37.00
7254;DHT22;4060;49.186;9.226;2022-07-06T10:32:11;27.60;37.00
7254;DHT22;4060;49.186;9.226;2022-07-06T10:34:42;27.60;37.00
7254;DHT22;4060;49.186;9.226;2022-07-06T10:37:23;27.60;37.10
7254;DHT22;4060;49.186;9.226;2022-07-06T10:39:53;27.60;37.00
7254;DHT22;4060;49.186;9.226;2022-07-06T10:42:43;27.60;37.00
7254;DHT22;4060;49.186;9.226;2022-07-06T10:45:15;27.60;37.00
7254;DHT22;4060;49.186;9.226;2022-07-06T10:47:45;27.60;37.00
7254;DHT22;4060;49.186;9.226;2022-07-06T10:50:19;27.70;37.00
7254;DHT22;4060;49.186;9.226;2022-07-06T10:52:52;27.70;37.00
7254;DHT22;4060;49.186;9.226;2022-07-06T10:55:32;27.70;37.00
7254;DHT22;4060;49.186;9.226;2022-07-06T10:58:02;27.70;36.90
7254;DHT22;4060;49.186;9.226;2022-07-06T11:00:51;27.70;36.90
7254;DHT22;4060;49.186;9.226;2022-07-06T11:03:35;27.70;36.90
7254;DHT22;4060;49.186;9.226;2022-07-06T11:06:17;27.80;36.90
7254;DHT22;4060;49.186;9.226;2022-07-06T11:08:49;27.80;36.80
7254;DHT22;4060;49.186;9.226;2022-07-06T11:11:19;27.80;36.80
7254;DHT22;4060;49.186;9.226;2022-07-06T11:13:54;27.80;36.70
7254;DHT22;4060;49.186;9.226;2022-07-06T11:16:24;27.80;36.70
7254;DHT22;4060;49.186;9.226;2022-07-06T11:19:05;27.80;36.70
7254;DHT22;4060;49.186;9.226;2022-07-06T11:21:44;27.80;36.70
7254;DHT22;4060;49.186;9.226;2022-07-06T11:24:15;27.80;36.70
7254;DHT22;4060;49.186;9.226;2022-07-06T11:26:45;27.80;36.50
7254;DHT22;4060;49.186;9.226;2022-07-06T11:29:16;27.80;36.50
7254;DHT22;4060;49.186;9.226;2022-07-06T11:31:49;27.90;36.50
7254;DHT22;4060;49.186;9.226;2022-07-06T11:34:21;27.90;36.60
7254;DHT22;4060;49.186;9.226;2022-07-06T11:36:58;27.90;36.50
7254;DHT22;4060;49.186;9.226;2022-07-06T11:39:28;27.90;36.40
7254;DHT22;4060;49.186;9.226;2022-07-06T11:41:58;27.90;36.50
7254;DHT22;4060;49.186;9.226;2022-07-06T11:44:28;28.00;36.40
7254;DHT22;4060;49.186;9.226;2022-07-06T11:46:57;28.00;36.30
7254;DHT22;4060;49.186;9.226;2022-07-06T11:49:29;28.00;36.30
7254;DHT22;4060;49.186;9.226;2022-07-06T11:52:06;28.00;36.20
7254;DHT22;4060;49.186;9.226;2022-07-06T11:54:36;28.00;36.10
7254;DHT22;4060;49.186;9.226;2022-07-06T11:57:08;28.00;36.00
7254;DHT22;4060;49.186;9.226;2022-07-06T11:59:39;28.10;35.90
7254;DHT22;4060;49.186;9.226;2022-07-06T12:02:11;28.10;35.90
7254;DHT22;4060;49.186;9.226;2022-07-06T12:04:42;28.10;35.90
7254;DHT22;4060;49.186;9.226;2022-07-06T12:07:15;28.10;35.80
7254;DHT22;4060;49.186;9.226;2022-07-06T12:09:47;28.10;35.80
7254;DHT22;4060;49.186;9.226;2022-07-06T12:12:16;28.20;35.70
7254;DHT22;4060;49.186;9.226;2022-07-06T12:14:46;28.20;35.70
7254;DHT22;4060;49.186;9.226;2022-07-06T12:17:16;28.20;35.70
7254;DHT22;4060;49.186;9.226;2022-07-06T12:19:53;28.20;35.60
7254;DHT22;4060;49.186;9.226;2022-07-06T12:22:27;28.20;35.50
7254;DHT22;4060;49.186;9.226;2022-07-06T12:24:56;28.20;35.30
7254;DHT22;4060;49.186;9.226;2022-07-06T12:27:26;28.30;35.30
7254;DHT22;4060;49.186;9.226;2022-07-06T12:30:10;28.30;35.30
7254;DHT22;4060;49.186;9.226;2022-07-06T12:32:40;28.30;35.20
7254;DHT22;4060;49.186;9.226;2022-07-06T12:35:11;28.30;35.20
7254;DHT22;4060;49.186;9.226;2022-07-06T12:37:59;28.30;35.00
7254;DHT22;4060;49.186;9.226;2022-07-06T12:40:29;28.30;34.80
7254;DHT22;4060;49.186;9.226;2022-07-06T12:42:59;28.40;34.90
7254;DHT22;4060;49.186;9.226;2022-07-06T12:45:29;28.40;34.80
7254;DHT22;4060;49.186;9.226;2022-07-06T12:48:00;28.40;34.70
7254;DHT22;4060;49.186;9.226;2022-07-06T12:50:33;28.40;34.70
7254;DHT22;4060;49.186;9.226;2022-07-06T12:53:22;28.50;34.70
7254;DHT22;4060;49.186;9.226;2022-07-06T12:56:11;28.50;34.50
7254;DHT22;4060;49.186;9.226;2022-07-06T12:58:56;28.50;34.40
7254;DHT22;4060;49.186;9.226;2022-07-06T13:01:25;28.50;34.40
7254;DHT22;4060;49.186;9.226;2022-07-06T13:03:56;28.50;34.30
7254;DHT22;4060;49.186;9.226;2022-07-06T13:06:31;28.50;34.10
7254;DHT22;4060;49.186;9.226;2022-07-06T13:09:03;28.60;33.90
7254;DHT22;4060;49.186;9.226;2022-07-06T13:11:32;28.60;33.80
7254;DHT22;4060;49.186;9.226;2022-07-06T13:14:02;28.60;33.60
7254;DHT22;4060;49.186;9.226;2022-07-06T13:16:32;28.60;33.50
7254;DHT22;4060;49.186;9.226;2022-07-06T13:19:03;28.60;33.40
7254;DHT22;4060;49.186;9.226;2022-07-06T13:21:32;28.70;33.20
7254;DHT22;4060;49.186;9.226;2022-07-06T13:24:05;28.70;33.10
7254;DHT22;4060;49.186;9.226;2022-07-06T13:26:35;28.70;33.10
7254;DHT22;4060;49.186;9.226;2022-07-06T13:29:04;28.70;33.00
7254;DHT22;4060;49.186;9.226;2022-07-06T13:31:34;28.80;33.00
7254;DHT22;4060;49.186;9.226;2022-07-06T13:34:04;28.80;32.80
7254;DHT22;4060;49.186;9.226;2022-07-06T13:36:34;28.80;32.70
7254;DHT22;4060;49.186;9.226;2022-07-06T13:39:07;28.80;32.60
7254;DHT22;4060;49.186;9.226;2022-07-06T13:41:37;28.80;33.00
7254;DHT22;4060;49.186;9.226;2022-07-06T13:44:06;28.90;32.50
7254;DHT22;4060;49.186;9.226;2022-07-06T13:46:36;28.90;32.40
7254;DHT22;4060;49.186;9.226;2022-07-06T13:49:07;28.90;32.20
7254;DHT22;4060;49.186;9.226;2022-07-06T13:51:36;28.90;32.20
7254;DHT22;4060;49.186;9.226;2022-07-06T13:54:08;28.90;32.30
7254;DHT22;4060;49.186;9.226;2022-07-06T13:56:39;29.00;32.10
7254;DHT22;4060;49.186;9.226;2022-07-06T13:59:09;29.00;32.10
7254;DHT22;4060;49.186;9.226;2022-07-06T14:01:39;29.00;32.00
7254;DHT22;4060;49.186;9.226;2022-07-06T14:04:08;29.00;31.90
7254;DHT22;4060;49.186;9.226;2022-07-06T14:06:37;29.00;31.80
7254;DHT22;4060;49.186;9.226;2022-07-06T14:09:09;29.10;31.70
7254;DHT22;4060;49.186;9.226;2022-07-06T14:11:38;29.10;31.70
7254;DHT22;4060;49.186;9.226;2022-07-06T14:14:08;29.10;31.60
7254;DHT22;4060;49.186;9.226;2022-07-06T14:16:38;29.10;31.50
7254;DHT22;4060;49.186;9.226;2022-07-06T14:19:08;29.10;31.30
7254;DHT22;4060;49.186;9.226;2022-07-06T14:21:38;29.10;30.60
7254;DHT22;4060;49.186;9.226;2022-07-06T14:24:09;29.10;30.10
7254;DHT22;4060;49.186;9.226;2022-07-06T14:26:39;29.10;30.00
7254;DHT22;4060;49.186;9.226;2022-07-06T14:29:08;29.10;29.90
7254;DHT22;4060;49.186;9.226;2022-07-06T14:31:38;29.10;29.90
7254;DHT22;4060;49.186;9.226;2022-07-06T14:34:07;29.10;29.90
7254;DHT22;4060;49.186;9.226;2022-07-06T14:36:37;29.10;30.00
7254;DHT22;4060;49.186;9.226;2022-07-06T14:39:08;29.10;30.00
7254;DHT22;4060;49.186;9.226;2022-07-06T14:41:39;29.10;29.90
7254;DHT22;4060;49.186;9.226;2022-07-06T14:44:09;29.10;29.90
7254;DHT22;4060;49.186;9.226;2022-07-06T14:46:39;29.10;29.90
7254;DHT22;4060;49.186;9.226;2022-07-06T14:49:08;29.20;29.90
7254;DHT22;4060;49.186;9.226;2022-07-06T14:51:38;29.20;29.80
7254;DHT22;4060;49.186;9.226;2022-07-06T14:54:10;29.20;29.80
7254;DHT22;4060;49.186;9.226;2022-07-06T14:56:39;29.20;29.80
7254;DHT22;4060;49.186;9.226;2022-07-06T14:59:09;29.20;29.80
7254;DHT22;4060;49.186;9.226;2022-07-06T15:01:39;29.20;29.80
7254;DHT22;4060;49.186;9.226;2022-07-06T15:04:09;29.20;29.80
7254;DHT22;4060;49.186;9.226;2022-07-06T15:06:41;29.20;29.70
7254;DHT22;4060;49.186;9.226;2022-07-06T15:09:12;29.20;29.60
7254;DHT22;4060;49.186;9.226;2022-07-06T15:11:42;29.30;29.70
7254;DHT22;4060;49.186;9.226;2022-07-06T15:14:12;29.30;29.60
7254;DHT22;4060;49.186;9.226;2022-07-06T15:16:43;29.30;29.80
7254;DHT22;4060;49.186;9.226;2022-07-06T15:19:13;29.30;29.60
7254;DHT22;4060;49.186;9.226;2022-07-06T15:21:42;29.30;29.60
7254;DHT22;4060;49.186;9.226;2022-07-06T15:24:14;29.30;29.60
7254;DHT22;4060;49.186;9.226;2022-07-06T15:26:44;29.30;29.50
7254;DHT22;4060;49.186;9.226;2022-07-06T15:29:14;29.30;29.50
7254;DHT22;4060;49.186;9.226;2022-07-06T15:31:44;29.30;29.40
7254;DHT22;4060;49.186;9.226;2022-07-06T15:34:13;29.40;29.40
7254;DHT22;4060;49.186;9.226;2022-07-06T15:36:45;29.40;29.40
7254;DHT22;4060;49.186;9.226;2022-07-06T15:39:16;29.40;29.30
7254;DHT22;4060;49.186;9.226;2022-07-06T15:41:46;29.40;29.30
7254;DHT22;4060;49.186;9.226;2022-07-06T15:44:15;29.40;29.40
7254;DHT22;4060;49.186;9.226;2022-07-06T15:46:45;29.40;29.30
7254;DHT22;4060;49.186;9.226;2022-07-06T15:49:16;29.40;29.20
7254;DHT22;4060;49.186;9.226;2022-07-06T15:51:45;29.40;29.20
7254;DHT22;4060;49.186;9.226;2022-07-06T15:54:16;29.40;29.20
7254;DHT22;4060;49.186;9.226;2022-07-06T15:56:45;29.40;29.10
7254;DHT22;4060;49.186;9.226;2022-07-06T15:59:15;29.40;29.10
7254;DHT22;4060;49.186;9.226;2022-07-06T16:01:44;29.40;29.10
7254;DHT22;4060;49.186;9.226;2022-07-06T16:04:14;29.40;29.10
7254;DHT22;4060;49.186;9.226;2022-07-06T16:06:44;29.50;29.10
7254;DHT22;4060;49.186;9.226;2022-07-06T16:09:13;29.40;29.10
7254;DHT22;4060;49.186;9.226;2022-07-06T16:11:45;29.50;29.10
7254;DHT22;4060;49.186;9.226;2022-07-06T16:14:14;29.50;29.10
7254;DHT22;4060;49.186;9.226;2022-07-06T16:16:44;29.50;29.10
7254;DHT22;4060;49.186;9.226;2022-07-06T16:19:13;29.40;29.00
7254;DHT22;4060;49.186;9.226;2022-07-06T16:21:43;29.50;29.10
7254;DHT22;4060;49.186;9.226;2022-07-06T16:24:12;29.50;28.80
7254;DHT22;4060;49.186;9.226;2022-07-06T16:26:41;29.50;28.20